Startpagina
METAR-TAF:

METAR-TAF

Vliegvelden :

Aéroport de Luxembourg

Luxemburg, Luxemburg

breedte: 49-37N, lengte: 006-13E, hoogte: 376 m

Actueel weer

Dit bericht is 39 minuten geleden gemaakt, om 09:20 UTC
Wind 7 kt uit het oostnoordoosten, variërend tussen het noorden en het oostzuidoosten
Temperatuur 20°C
Vochtigheid 46%
Druk 1027 hPa
Zicht 10 km of meer
Weinig wolken op 3400 ft

METAR: ELLX 120920Z 06007KT 010V110 9999 FEW034 20/08 Q1027 NOSIG

Tijdstip: 11:59 (09:59 UTC)

Verwachting

Dit bericht is 4 uur en het 59 minuten geleden gemaakt, om 05:00 UTC
Verwachting geldig van 12 om 06 UTC tot 13 om 12 UTC
Wind 10 kt uit het noordoosten
Zicht 10 km of meer
geen wolken onder 1500 m en geen cumulonimbus
Tijdelijke
van 12 om 09 UTC tot 12 om 15 UTC
Verspreide wolken op 4000 ft

TAF: ELLX 120500Z 1206/1312 04010KT CAVOK TEMPO 1209/1215 SCT040

Waarnemingen en weersverwachtingen van meer dan 4000 vliegvelden (METAR en TAF).

De beschikbare stations zijn de gele en rode punten op de kaart.

Ga met uw muis naar het station om de naam te zien.

Klik dan om waarnemingen en weersverwachtingen te zien.

kaart wijzigen: klik op de groene knoppen met een zwart kruis om in te zoomen, op de groene knop met een streepje om uit te zoomen of op de groene pijlen voor aangrenzende kaarten.


METAR-TAF: